sensor_id;sensor_type;location;lat;lon;timestamp;temperature;humidity
75022;SHT31;63583;49.976;20.182;2023-02-28T00:00:21;-1.05;76.49
75022;SHT31;63583;49.976;20.182;2023-02-28T00:03:07;-1.03;75.72
75022;SHT31;63583;49.976;20.182;2023-02-28T00:05:33;-1.13;75.71
75022;SHT31;63583;49.976;20.182;2023-02-28T00:07:58;-1.10;74.90
75022;SHT31;63583;49.976;20.182;2023-02-28T00:10:27;-1.16;75.36
75022;SHT31;63583;49.976;20.182;2023-02-28T00:12:55;-1.09;75.64
75022;SHT31;63583;49.976;20.182;2023-02-28T00:15:23;-0.98;74.76
75022;SHT31;63583;49.976;20.182;2023-02-28T00:17:49;-0.99;74.65
75022;SHT31;63583;49.976;20.182;2023-02-28T00:20:16;-0.99;74.04
75022;SHT31;63583;49.976;20.182;2023-02-28T00:22:46;-0.91;73.32
75022;SHT31;63583;49.976;20.182;2023-02-28T00:25:18;-0.92;73.41
75022;SHT31;63583;49.976;20.182;2023-02-28T00:27:44;-1.05;73.51
75022;SHT31;63583;49.976;20.182;2023-02-28T00:30:13;-1.21;74.48
75022;SHT31;63583;49.976;20.182;2023-02-28T00:32:39;-1.19;74.50
75022;SHT31;63583;49.976;20.182;2023-02-28T00:35:06;-1.23;74.11
75022;SHT31;63583;49.976;20.182;2023-02-28T00:37:32;-1.12;72.76
75022;SHT31;63583;49.976;20.182;2023-02-28T00:39:58;-1.17;73.35
75022;SHT31;63583;49.976;20.182;2023-02-28T00:42:24;-1.09;72.71
75022;SHT31;63583;49.976;20.182;2023-02-28T00:44:50;-1.21;74.19
75022;SHT31;63583;49.976;20.182;2023-02-28T00:47:16;-1.25;74.64
75022;SHT31;63583;49.976;20.182;2023-02-28T00:49:42;-1.26;74.84
75022;SHT31;63583;49.976;20.182;2023-02-28T00:52:07;-1.26;75.48
75022;SHT31;63583;49.976;20.182;2023-02-28T00:54:33;-1.30;75.58
75022;SHT31;63583;49.976;20.182;2023-02-28T00:56:59;-1.35;75.71
75022;SHT31;63583;49.976;20.182;2023-02-28T00:59:25;-1.47;75.49
75022;SHT31;63583;49.976;20.182;2023-02-28T01:01:51;-1.53;74.14
75022;SHT31;63583;49.976;20.182;2023-02-28T01:04:17;-1.57;74.12
75022;SHT31;63583;49.976;20.182;2023-02-28T01:06:42;-1.50;74.18
75022;SHT31;63583;49.976;20.182;2023-02-28T01:09:09;-1.46;73.72
75022;SHT31;63583;49.976;20.182;2023-02-28T01:11:34;-1.61;75.04
75022;SHT31;63583;49.976;20.182;2023-02-28T01:14:01;-1.75;75.70
75022;SHT31;63583;49.976;20.182;2023-02-28T01:16:26;-1.58;74.02
75022;SHT31;63583;49.976;20.182;2023-02-28T01:18:52;-1.67;74.80
75022;SHT31;63583;49.976;20.182;2023-02-28T01:21:19;-1.74;75.23
75022;SHT31;63583;49.976;20.182;2023-02-28T01:23:46;-1.79;75.81
75022;SHT31;63583;49.976;20.182;2023-02-28T01:26:15;-1.81;76.14
75022;SHT31;63583;49.976;20.182;2023-02-28T01:28:41;-1.86;76.64
75022;SHT31;63583;49.976;20.182;2023-02-28T01:31:09;-1.85;76.86
75022;SHT31;63583;49.976;20.182;2023-02-28T01:33:35;-1.86;77.09
75022;SHT31;63583;49.976;20.182;2023-02-28T01:38:29;-1.98;77.06
75022;SHT31;63583;49.976;20.182;2023-02-28T01:40:55;-1.95;77.20
75022;SHT31;63583;49.976;20.182;2023-02-28T01:43:24;-1.95;76.64
75022;SHT31;63583;49.976;20.182;2023-02-28T01:45:50;-1.95;77.01
75022;SHT31;63583;49.976;20.182;2023-02-28T01:48:17;-1.91;77.00
75022;SHT31;63583;49.976;20.182;2023-02-28T01:50:45;-2.02;76.75
75022;SHT31;63583;49.976;20.182;2023-02-28T01:53:17;-1.92;76.07
75022;SHT31;63583;49.976;20.182;2023-02-28T01:55:47;-1.92;73.95
75022;SHT31;63583;49.976;20.182;2023-02-28T01:58:14;-1.70;72.83
75022;SHT31;63583;49.976;20.182;2023-02-28T02:00:40;-1.89;72.87
75022;SHT31;63583;49.976;20.182;2023-02-28T02:03:12;-1.77;71.83
75022;SHT31;63583;49.976;20.182;2023-02-28T02:05:39;-1.85;71.64
75022;SHT31;63583;49.976;20.182;2023-02-28T02:08:12;-1.75;71.88
75022;SHT31;63583;49.976;20.182;2023-02-28T02:10:43;-1.81;72.11
75022;SHT31;63583;49.976;20.182;2023-02-28T02:19:36;-1.81;73.55
75022;SHT31;63583;49.976;20.182;2023-02-28T02:30:17;-1.95;73.12
75022;SHT31;63583;49.976;20.182;2023-02-28T02:35:49;-2.06;74.43
75022;SHT31;63583;49.976;20.182;2023-02-28T02:38:32;-2.12;74.32
75022;SHT31;63583;49.976;20.182;2023-02-28T02:44:10;-2.02;74.27
75022;SHT31;63583;49.976;20.182;2023-02-28T02:46:40;-2.15;74.76
75022;SHT31;63583;49.976;20.182;2023-02-28T02:49:10;-2.30;74.73
75022;SHT31;63583;49.976;20.182;2023-02-28T02:51:39;-2.22;73.87
75022;SHT31;63583;49.976;20.182;2023-02-28T02:54:13;-2.32;75.12
75022;SHT31;63583;49.976;20.182;2023-02-28T02:56:44;-2.28;75.60
75022;SHT31;63583;49.976;20.182;2023-02-28T02:59:12;-2.40;76.61
75022;SHT31;63583;49.976;20.182;2023-02-28T03:01:40;-2.43;77.70
75022;SHT31;63583;49.976;20.182;2023-02-28T03:04:11;-2.50;78.75
75022;SHT31;63583;49.976;20.182;2023-02-28T03:06:37;-2.52;79.22
75022;SHT31;63583;49.976;20.182;2023-02-28T03:09:03;-2.56;81.69
75022;SHT31;63583;49.976;20.182;2023-02-28T03:11:30;-2.64;81.28
75022;SHT31;63583;49.976;20.182;2023-02-28T03:31:01;-2.85;80.74
75022;SHT31;63583;49.976;20.182;2023-02-28T03:33:37;-2.85;80.40
75022;SHT31;63583;49.976;20.182;2023-02-28T03:36:08;-2.87;80.43
75022;SHT31;63583;49.976;20.182;2023-02-28T03:38:42;-2.78;79.91
75022;SHT31;63583;49.976;20.182;2023-02-28T03:41:16;-2.85;79.90
75022;SHT31;63583;49.976;20.182;2023-02-28T03:43:49;-2.85;80.03
75022;SHT31;63583;49.976;20.182;2023-02-28T03:46:19;-2.91;80.14
75022;SHT31;63583;49.976;20.182;2023-02-28T03:48:53;-2.94;80.20
75022;SHT31;63583;49.976;20.182;2023-02-28T03:51:22;-2.94;80.23
75022;SHT31;63583;49.976;20.182;2023-02-28T03:53:58;-2.92;80.17
75022;SHT31;63583;49.976;20.182;2023-02-28T03:56:33;-2.98;80.32
75022;SHT31;63583;49.976;20.182;2023-02-28T04:01:30;-2.95;80.34
75022;SHT31;63583;49.976;20.182;2023-02-28T04:03:58;-3.01;80.57
75022;SHT31;63583;49.976;20.182;2023-02-28T04:06:24;-2.94;80.45
75022;SHT31;63583;49.976;20.182;2023-02-28T04:08:50;-2.77;79.21
75022;SHT31;63583;49.976;20.182;2023-02-28T04:11:21;-2.80;79.21
75022;SHT31;63583;49.976;20.182;2023-02-28T04:13:47;-2.71;78.95
75022;SHT31;63583;49.976;20.182;2023-02-28T04:16:13;-2.80;79.31
75022;SHT31;63583;49.976;20.182;2023-02-28T04:18:40;-2.65;79.00
75022;SHT31;63583;49.976;20.182;2023-02-28T04:21:06;-2.71;78.78
75022;SHT31;63583;49.976;20.182;2023-02-28T04:23:32;-2.81;79.18
75022;SHT31;63583;49.976;20.182;2023-02-28T04:25:58;-2.78;80.71
75022;SHT31;63583;49.976;20.182;2023-02-28T04:28:25;-2.81;79.49
75022;SHT31;63583;49.976;20.182;2023-02-28T04:30:58;-2.77;79.55
75022;SHT31;63583;49.976;20.182;2023-02-28T04:33:24;-2.70;78.75
75022;SHT31;63583;49.976;20.182;2023-02-28T04:36:04;-2.74;79.64
75022;SHT31;63583;49.976;20.182;2023-02-28T04:38:36;-2.85;79.71
75022;SHT31;63583;49.976;20.182;2023-02-28T04:41:02;-2.92;80.19
75022;SHT31;63583;49.976;20.182;2023-02-28T04:43:31;-2.94;80.76
75022;SHT31;63583;49.976;20.182;2023-02-28T04:46:00;-2.91;80.40
75022;SHT31;63583;49.976;20.182;2023-02-28T04:48:32;-2.89;81.07
75022;SHT31;63583;49.976;20.182;2023-02-28T04:51:03;-3.02;80.62
75022;SHT31;63583;49.976;20.182;2023-02-28T04:53:29;-3.03;80.83
75022;SHT31;63583;49.976;20.182;2023-02-28T04:55:56;-3.11;81.23
75022;SHT31;63583;49.976;20.182;2023-02-28T04:58:22;-3.08;80.86
75022;SHT31;63583;49.976;20.182;2023-02-28T05:00:52;-3.12;81.96
75022;SHT31;63583;49.976;20.182;2023-02-28T05:03:19;-3.19;82.67
75022;SHT31;63583;49.976;20.182;2023-02-28T05:05:46;-3.16;82.13
75022;SHT31;63583;49.976;20.182;2023-02-28T05:08:12;-3.22;83.14
75022;SHT31;63583;49.976;20.182;2023-02-28T05:10:38;-3.24;82.98
75022;SHT31;63583;49.976;20.182;2023-02-28T05:13:04;-3.24;83.53
75022;SHT31;63583;49.976;20.182;2023-02-28T05:15:29;-3.20;82.99
75022;SHT31;63583;49.976;20.182;2023-02-28T05:17:55;-3.28;83.18
75022;SHT31;63583;49.976;20.182;2023-02-28T05:20:21;-3.33;84.12
75022;SHT31;63583;49.976;20.182;2023-02-28T05:22:47;-3.35;84.03
75022;SHT31;63583;49.976;20.182;2023-02-28T05:25:17;-3.29;83.57
75022;SHT31;63583;49.976;20.182;2023-02-28T05:27:43;-3.24;82.83
75022;SHT31;63583;49.976;20.182;2023-02-28T05:30:10;-3.30;83.55
75022;SHT31;63583;49.976;20.182;2023-02-28T05:32:40;-3.30;83.53
75022;SHT31;63583;49.976;20.182;2023-02-28T05:35:11;-3.26;82.77
75022;SHT31;63583;49.976;20.182;2023-02-28T05:37:38;-3.33;82.51
75022;SHT31;63583;49.976;20.182;2023-02-28T05:40:05;-3.33;82.35
75022;SHT31;63583;49.976;20.182;2023-02-28T05:42:32;-3.36;82.29
75022;SHT31;63583;49.976;20.182;2023-02-28T05:44:58;-3.35;82.47
75022;SHT31;63583;49.976;20.182;2023-02-28T05:47:24;-3.23;82.38
75022;SHT31;63583;49.976;20.182;2023-02-28T05:49:50;-3.20;82.20
75022;SHT31;63583;49.976;20.182;2023-02-28T05:52:16;-3.23;81.95
75022;SHT31;63583;49.976;20.182;2023-02-28T05:54:41;-3.22;81.94
75022;SHT31;63583;49.976;20.182;2023-02-28T05:57:07;-3.06;81.41
75022;SHT31;63583;49.976;20.182;2023-02-28T05:59:33;-3.08;80.44
75022;SHT31;63583;49.976;20.182;2023-02-28T06:01:59;-3.16;80.67
75022;SHT31;63583;49.976;20.182;2023-02-28T06:04:25;-3.12;82.07
75022;SHT31;63583;49.976;20.182;2023-02-28T06:06:50;-3.13;83.04
75022;SHT31;63583;49.976;20.182;2023-02-28T06:09:17;-3.08;82.89
75022;SHT31;63583;49.976;20.182;2023-02-28T06:11:43;-3.08;83.40
75022;SHT31;63583;49.976;20.182;2023-02-28T06:14:18;-3.09;84.78
75022;SHT31;63583;49.976;20.182;2023-02-28T06:16:45;-3.03;84.46
75022;SHT31;63583;49.976;20.182;2023-02-28T06:19:10;-2.99;84.19
75022;SHT31;63583;49.976;20.182;2023-02-28T06:21:36;-2.96;84.10
75022;SHT31;63583;49.976;20.182;2023-02-28T06:24:02;-2.92;83.69
75022;SHT31;63583;49.976;20.182;2023-02-28T06:26:29;-2.96;83.51
75022;SHT31;63583;49.976;20.182;2023-02-28T06:28:56;-2.95;82.87
75022;SHT31;63583;49.976;20.182;2023-02-28T06:31:22;-2.91;82.80
75022;SHT31;63583;49.976;20.182;2023-02-28T06:33:48;-2.81;82.54
75022;SHT31;63583;49.976;20.182;2023-02-28T06:36:15;-2.80;82.91
75022;SHT31;63583;49.976;20.182;2023-02-28T06:38:42;-2.77;83.90
75022;SHT31;63583;49.976;20.182;2023-02-28T06:41:08;-2.68;83.64
75022;SHT31;63583;49.976;20.182;2023-02-28T06:43:38;-2.68;83.70
75022;SHT31;63583;49.976;20.182;2023-02-28T06:46:06;-2.65;83.46
75022;SHT31;63583;49.976;20.182;2023-02-28T06:48:32;-2.58;83.33
75022;SHT31;63583;49.976;20.182;2023-02-28T06:53:28;-2.57;81.67
75022;SHT31;63583;49.976;20.182;2023-02-28T06:55:54;-2.63;80.80
75022;SHT31;63583;49.976;20.182;2023-02-28T06:58:20;-2.60;80.62
75022;SHT31;63583;49.976;20.182;2023-02-28T07:00:49;-2.57;80.43
75022;SHT31;63583;49.976;20.182;2023-02-28T07:03:15;-2.36;78.93
75022;SHT31;63583;49.976;20.182;2023-02-28T07:05:41;-2.47;80.07
75022;SHT31;63583;49.976;20.182;2023-02-28T07:08:07;-2.36;80.05
75022;SHT31;63583;49.976;20.182;2023-02-28T07:10:33;-2.23;79.69
75022;SHT31;63583;49.976;20.182;2023-02-28T07:13:00;-2.15;79.64
75022;SHT31;63583;49.976;20.182;2023-02-28T07:15:26;-2.13;79.22
75022;SHT31;63583;49.976;20.182;2023-02-28T07:17:51;-2.23;79.66
75022;SHT31;63583;49.976;20.182;2023-02-28T07:20:17;-2.09;79.40
75022;SHT31;63583;49.976;20.182;2023-02-28T07:22:43;-1.94;79.62
75022;SHT31;63583;49.976;20.182;2023-02-28T07:25:09;-2.02;80.36
75022;SHT31;63583;49.976;20.182;2023-02-28T07:27:35;-1.92;79.38
75022;SHT31;63583;49.976;20.182;2023-02-28T07:30:01;-1.88;78.91
75022;SHT31;63583;49.976;20.182;2023-02-28T07:32:29;-1.85;78.57
75022;SHT31;63583;49.976;20.182;2023-02-28T07:34:55;-1.71;78.23
75022;SHT31;63583;49.976;20.182;2023-02-28T07:37:21;-1.60;79.09
75022;SHT31;63583;49.976;20.182;2023-02-28T07:39:46;-1.72;78.88
75022;SHT31;63583;49.976;20.182;2023-02-28T07:42:12;-1.63;78.50
75022;SHT31;63583;49.976;20.182;2023-02-28T07:44:39;-1.51;77.15
75022;SHT31;63583;49.976;20.182;2023-02-28T07:47:09;-1.26;75.92
75022;SHT31;63583;49.976;20.182;2023-02-28T07:49:38;-1.19;77.11
75022;SHT31;63583;49.976;20.182;2023-02-28T07:52:05;-1.10;76.75
75022;SHT31;63583;49.976;20.182;2023-02-28T07:54:32;-0.96;75.21
75022;SHT31;63583;49.976;20.182;2023-02-28T07:56:57;-0.81;72.16
75022;SHT31;63583;49.976;20.182;2023-02-28T07:59:23;-0.62;71.99
75022;SHT31;63583;49.976;20.182;2023-02-28T08:01:49;-0.57;72.18
75022;SHT31;63583;49.976;20.182;2023-02-28T08:04:17;-0.53;71.29
75022;SHT31;63583;49.976;20.182;2023-02-28T08:06:43;-0.51;68.89
75022;SHT31;63583;49.976;20.182;2023-02-28T08:09:09;-0.26;67.79
75022;SHT31;63583;49.976;20.182;2023-02-28T08:11:34;-0.22;69.91
75022;SHT31;63583;49.976;20.182;2023-02-28T08:14:00;-0.29;64.52
75022;SHT31;63583;49.976;20.182;2023-02-28T08:16:26;-0.07;66.26
75022;SHT31;63583;49.976;20.182;2023-02-28T08:18:52;-0.12;65.44
75022;SHT31;63583;49.976;20.182;2023-02-28T08:21:19;0.02;64.80
75022;SHT31;63583;49.976;20.182;2023-02-28T08:23:49;-0.10;63.14
75022;SHT31;63583;49.976;20.182;2023-02-28T08:26:16;-0.10;63.57
75022;SHT31;63583;49.976;20.182;2023-02-28T08:28:42;-0.07;62.97
75022;SHT31;63583;49.976;20.182;2023-02-28T08:31:12;-0.06;63.02
75022;SHT31;63583;49.976;20.182;2023-02-28T08:33:39;0.02;63.41
75022;SHT31;63583;49.976;20.182;2023-02-28T08:36:06;0.21;61.87
75022;SHT31;63583;49.976;20.182;2023-02-28T08:38:32;0.30;60.83
75022;SHT31;63583;49.976;20.182;2023-02-28T08:40:59;0.32;61.97
75022;SHT31;63583;49.976;20.182;2023-02-28T08:43:26;0.39;61.35
75022;SHT31;63583;49.976;20.182;2023-02-28T08:45:52;0.48;60.82
75022;SHT31;63583;49.976;20.182;2023-02-28T08:48:18;0.33;60.17
75022;SHT31;63583;49.976;20.182;2023-02-28T08:50:44;0.48;61.63
75022;SHT31;63583;49.976;20.182;2023-02-28T08:53:09;0.80;61.82
75022;SHT31;63583;49.976;20.182;2023-02-28T08:55:35;0.52;59.50
75022;SHT31;63583;49.976;20.182;2023-02-28T08:58:01;0.63;59.71
75022;SHT31;63583;49.976;20.182;2023-02-28T09:00:29;0.42;61.53
75022;SHT31;63583;49.976;20.182;2023-02-28T09:02:55;0.42;61.82
75022;SHT31;63583;49.976;20.182;2023-02-28T09:05:21;0.42;60.77
75022;SHT31;63583;49.976;20.182;2023-02-28T09:07:47;0.62;62.63
75022;SHT31;63583;49.976;20.182;2023-02-28T09:10:13;0.49;62.30
75022;SHT31;63583;49.976;20.182;2023-02-28T09:12:39;0.63;62.76
75022;SHT31;63583;49.976;20.182;2023-02-28T09:15:05;0.53;60.55
75022;SHT31;63583;49.976;20.182;2023-02-28T09:17:31;0.83;64.27
75022;SHT31;63583;49.976;20.182;2023-02-28T09:19:57;0.59;61.03
75022;SHT31;63583;49.976;20.182;2023-02-28T09:22:23;0.41;61.52
75022;SHT31;63583;49.976;20.182;2023-02-28T09:24:48;0.52;61.65
75022;SHT31;63583;49.976;20.182;2023-02-28T09:27:14;0.22;61.16
75022;SHT31;63583;49.976;20.182;2023-02-28T09:29:39;0.43;62.20
75022;SHT31;63583;49.976;20.182;2023-02-28T09:32:05;0.69;62.41
75022;SHT31;63583;49.976;20.182;2023-02-28T09:34:31;0.55;62.19
75022;SHT31;63583;49.976;20.182;2023-02-28T09:36:57;0.62;62.83
75022;SHT31;63583;49.976;20.182;2023-02-28T09:39:23;0.87;63.87
75022;SHT31;63583;49.976;20.182;2023-02-28T09:41:54;0.73;60.63
75022;SHT31;63583;49.976;20.182;2023-02-28T09:46:52;0.84;61.64
75022;SHT31;63583;49.976;20.182;2023-02-28T09:49:23;0.46;61.02
75022;SHT31;63583;49.976;20.182;2023-02-28T09:51:53;0.67;61.05
75022;SHT31;63583;49.976;20.182;2023-02-28T09:54:23;0.63;62.02
75022;SHT31;63583;49.976;20.182;2023-02-28T09:57:04;0.59;62.24
75022;SHT31;63583;49.976;20.182;2023-02-28T09:59:48;0.59;62.53
75022;SHT31;63583;49.976;20.182;2023-02-28T10:04:58;0.94;61.49
75022;SHT31;63583;49.976;20.182;2023-02-28T10:10:22;1.20;61.60
75022;SHT31;63583;49.976;20.182;2023-02-28T10:12:53;1.34;63.22
75022;SHT31;63583;49.976;20.182;2023-02-28T10:15:22;1.41;61.96
75022;SHT31;63583;49.976;20.182;2023-02-28T10:17:53;1.25;60.87
75022;SHT31;63583;49.976;20.182;2023-02-28T10:20:21;1.11;60.40
75022;SHT31;63583;49.976;20.182;2023-02-28T10:23:05;1.21;61.28
75022;SHT31;63583;49.976;20.182;2023-02-28T10:25:36;1.25;62.09
75022;SHT31;63583;49.976;20.182;2023-02-28T10:28:20;1.17;62.89
75022;SHT31;63583;49.976;20.182;2023-02-28T10:30:48;0.91;61.35
75022;SHT31;63583;49.976;20.182;2023-02-28T10:33:32;1.05;61.79
75022;SHT31;63583;49.976;20.182;2023-02-28T10:36:00;1.45;62.24
75022;SHT31;63583;49.976;20.182;2023-02-28T10:38:35;1.52;63.20
75022;SHT31;63583;49.976;20.182;2023-02-28T10:41:06;1.49;60.87
75022;SHT31;63583;49.976;20.182;2023-02-28T10:43:33;1.41;59.93
75022;SHT31;63583;49.976;20.182;2023-02-28T10:46:10;1.62;59.99
75022;SHT31;63583;49.976;20.182;2023-02-28T10:51:05;1.63;60.32
75022;SHT31;63583;49.976;20.182;2023-02-28T10:53:39;1.39;59.34
75022;SHT31;63583;49.976;20.182;2023-02-28T10:59:00;1.35;60.22
75022;SHT31;63583;49.976;20.182;2023-02-28T11:03:56;1.41;60.52
75022;SHT31;63583;49.976;20.182;2023-02-28T11:06:30;1.45;57.77
75022;SHT31;63583;49.976;20.182;2023-02-28T11:09:14;1.46;58.56
75022;SHT31;63583;49.976;20.182;2023-02-28T11:11:43;1.36;57.74
75022;SHT31;63583;49.976;20.182;2023-02-28T11:14:41;1.79;57.65
75022;SHT31;63583;49.976;20.182;2023-02-28T11:17:24;1.52;57.68
75022;SHT31;63583;49.976;20.182;2023-02-28T11:19:54;1.45;57.70
75022;SHT31;63583;49.976;20.182;2023-02-28T11:22:26;1.63;58.93
75022;SHT31;63583;49.976;20.182;2023-02-28T11:24:57;1.77;58.11
75022;SHT31;63583;49.976;20.182;2023-02-28T11:29:58;2.00;57.85
75022;SHT31;63583;49.976;20.182;2023-02-28T11:32:25;1.94;59.25
75022;SHT31;63583;49.976;20.182;2023-02-28T11:35:15;1.84;57.83
75022;SHT31;63583;49.976;20.182;2023-02-28T11:37:42;1.80;57.53
75022;SHT31;63583;49.976;20.182;2023-02-28T11:40:16;1.79;57.66
75022;SHT31;63583;49.976;20.182;2023-02-28T11:45:44;1.89;56.82
75022;SHT31;63583;49.976;20.182;2023-02-28T11:48:20;1.97;56.78
75022;SHT31;63583;49.976;20.182;2023-02-28T11:50:54;2.13;58.05
75022;SHT31;63583;49.976;20.182;2023-02-28T11:56:14;2.00;56.97
75022;SHT31;63583;49.976;20.182;2023-02-28T12:11:48;1.91;58.71
75022;SHT31;63583;49.976;20.182;2023-02-28T12:14:22;2.04;57.73
75022;SHT31;63583;49.976;20.182;2023-02-28T12:19:29;2.24;56.27
75022;SHT31;63583;49.976;20.182;2023-02-28T12:25:05;2.29;58.21
75022;SHT31;63583;49.976;20.182;2023-02-28T12:27:38;2.49;58.74
75022;SHT31;63583;49.976;20.182;2023-02-28T12:30:08;2.49;57.83
75022;SHT31;63583;49.976;20.182;2023-02-28T12:32:46;2.46;57.91
75022;SHT31;63583;49.976;20.182;2023-02-28T12:35:21;2.37;57.09
75022;SHT31;63583;49.976;20.182;2023-02-28T12:38:09;2.37;57.64
75022;SHT31;63583;49.976;20.182;2023-02-28T12:41:04;2.18;57.92
75022;SHT31;63583;49.976;20.182;2023-02-28T12:43:40;2.44;57.16
75022;SHT31;63583;49.976;20.182;2023-02-28T12:46:12;2.67;56.05
75022;SHT31;63583;49.976;20.182;2023-02-28T12:48:46;2.83;56.81
75022;SHT31;63583;49.976;20.182;2023-02-28T12:51:15;3.11;55.41
75022;SHT31;63583;49.976;20.182;2023-02-28T12:54:00;2.75;55.99
75022;SHT31;63583;49.976;20.182;2023-02-28T12:59:05;2.41;57.43
75022;SHT31;63583;49.976;20.182;2023-02-28T13:04:27;2.76;58.12
75022;SHT31;63583;49.976;20.182;2023-02-28T13:09:32;2.66;57.74
75022;SHT31;63583;49.976;20.182;2023-02-28T13:11:58;2.65;56.34
75022;SHT31;63583;49.976;20.182;2023-02-28T13:14:39;2.65;57.55
75022;SHT31;63583;49.976;20.182;2023-02-28T13:19:57;2.73;56.93
75022;SHT31;63583;49.976;20.182;2023-02-28T13:22:52;2.71;56.74
75022;SHT31;63583;49.976;20.182;2023-02-28T13:27:48;2.67;56.77
75022;SHT31;63583;49.976;20.182;2023-02-28T13:33:37;2.38;58.23
75022;SHT31;63583;49.976;20.182;2023-02-28T13:38:55;2.62;57.04
75022;SHT31;63583;49.976;20.182;2023-02-28T13:51:52;2.58;59.57
75022;SHT31;63583;49.976;20.182;2023-02-28T14:02:53;2.58;60.14
75022;SHT31;63583;49.976;20.182;2023-02-28T14:05:23;2.76;58.69
75022;SHT31;63583;49.976;20.182;2023-02-28T14:07:54;2.73;59.40
75022;SHT31;63583;49.976;20.182;2023-02-28T14:10:25;2.59;60.93
75022;SHT31;63583;49.976;20.182;2023-02-28T14:13:11;2.35;59.73
75022;SHT31;63583;49.976;20.182;2023-02-28T14:18:29;2.48;60.46
75022;SHT31;63583;49.976;20.182;2023-02-28T14:26:21;2.21;62.10
75022;SHT31;63583;49.976;20.182;2023-02-28T14:31:44;2.11;63.27
75022;SHT31;63583;49.976;20.182;2023-02-28T14:36:46;2.00;64.30
75022;SHT31;63583;49.976;20.182;2023-02-28T14:39:20;2.00;64.42
75022;SHT31;63583;49.976;20.182;2023-02-28T14:41:47;1.89;63.30
75022;SHT31;63583;49.976;20.182;2023-02-28T14:44:22;1.94;63.52
75022;SHT31;63583;49.976;20.182;2023-02-28T14:46:56;1.71;64.51
75022;SHT31;63583;49.976;20.182;2023-02-28T14:49:30;1.70;64.92
75022;SHT31;63583;49.976;20.182;2023-02-28T14:54:32;1.53;65.80
75022;SHT31;63583;49.976;20.182;2023-02-28T14:56:58;1.52;66.49
75022;SHT31;63583;49.976;20.182;2023-02-28T15:01:51;1.42;65.69
75022;SHT31;63583;49.976;20.182;2023-02-28T15:04:27;1.34;66.04
75022;SHT31;63583;49.976;20.182;2023-02-28T15:07:17;1.30;66.08
75022;SHT31;63583;49.976;20.182;2023-02-28T15:09:43;1.30;66.49
75022;SHT31;63583;49.976;20.182;2023-02-28T15:12:13;1.24;66.75
75022;SHT31;63583;49.976;20.182;2023-02-28T15:14:42;1.21;67.21
75022;SHT31;63583;49.976;20.182;2023-02-28T15:17:17;1.17;67.05
75022;SHT31;63583;49.976;20.182;2023-02-28T15:19:49;1.18;66.47
75022;SHT31;63583;49.976;20.182;2023-02-28T15:22:19;1.30;66.06
75022;SHT31;63583;49.976;20.182;2023-02-28T15:24:50;1.08;66.80
75022;SHT31;63583;49.976;20.182;2023-02-28T15:27:26;1.05;67.99
75022;SHT31;63583;49.976;20.182;2023-02-28T15:30:00;0.97;67.02
75022;SHT31;63583;49.976;20.182;2023-02-28T15:32:35;1.00;67.83
75022;SHT31;63583;49.976;20.182;2023-02-28T15:35:37;0.88;68.25
75022;SHT31;63583;49.976;20.182;2023-02-28T15:38:28;0.90;68.88
75022;SHT31;63583;49.976;20.182;2023-02-28T15:40:57;0.84;68.29
75022;SHT31;63583;49.976;20.182;2023-02-28T15:43:34;0.79;68.94
75022;SHT31;63583;49.976;20.182;2023-02-28T15:46:10;0.80;67.96
75022;SHT31;63583;49.976;20.182;2023-02-28T15:51:08;0.67;69.13
75022;SHT31;63583;49.976;20.182;2023-02-28T15:53:48;0.63;69.82
75022;SHT31;63583;49.976;20.182;2023-02-28T15:56:22;0.57;69.83
75022;SHT31;63583;49.976;20.182;2023-02-28T15:58:48;0.55;70.15
75022;SHT31;63583;49.976;20.182;2023-02-28T16:01:25;0.52;70.47
75022;SHT31;63583;49.976;20.182;2023-02-28T16:03:54;0.48;70.71
75022;SHT31;63583;49.976;20.182;2023-02-28T16:09:16;0.38;71.30
75022;SHT31;63583;49.976;20.182;2023-02-28T16:11:48;0.30;71.54
75022;SHT31;63583;49.976;20.182;2023-02-28T16:14:17;0.28;71.83
75022;SHT31;63583;49.976;20.182;2023-02-28T16:16:47;0.21;72.62
75022;SHT31;63583;49.976;20.182;2023-02-28T16:19:13;0.14;73.26
75022;SHT31;63583;49.976;20.182;2023-02-28T16:21:39;0.12;72.91
75022;SHT31;63583;49.976;20.182;2023-02-28T16:24:05;0.05;73.17
75022;SHT31;63583;49.976;20.182;2023-02-28T16:26:31;-0.01;73.24
75022;SHT31;63583;49.976;20.182;2023-02-28T16:29:00;-0.05;73.30
75022;SHT31;63583;49.976;20.182;2023-02-28T16:31:27;-0.12;73.60
75022;SHT31;63583;49.976;20.182;2023-02-28T16:33:53;-0.12;73.81
75022;SHT31;63583;49.976;20.182;2023-02-28T16:36:22;-0.19;73.75
75022;SHT31;63583;49.976;20.182;2023-02-28T16:38:48;-0.19;73.94
75022;SHT31;63583;49.976;20.182;2023-02-28T16:41:22;-0.20;73.97
75022;SHT31;63583;49.976;20.182;2023-02-28T16:43:51;-0.24;74.15
75022;SHT31;63583;49.976;20.182;2023-02-28T16:46:18;-0.27;75.01
75022;SHT31;63583;49.976;20.182;2023-02-28T16:48:45;-0.30;76.50
75022;SHT31;63583;49.976;20.182;2023-02-28T16:51:15;-0.37;75.43
75022;SHT31;63583;49.976;20.182;2023-02-28T16:53:41;-0.40;75.49
75022;SHT31;63583;49.976;20.182;2023-02-28T16:56:14;-0.41;75.17
75022;SHT31;63583;49.976;20.182;2023-02-28T16:58:40;-0.40;75.50
75022;SHT31;63583;49.976;20.182;2023-02-28T17:01:06;-0.40;74.65
75022;SHT31;63583;49.976;20.182;2023-02-28T17:03:31;-0.40;74.76
75022;SHT31;63583;49.976;20.182;2023-02-28T17:05:57;-0.34;74.05
75022;SHT31;63583;49.976;20.182;2023-02-28T17:08:23;-0.37;73.52
75022;SHT31;63583;49.976;20.182;2023-02-28T17:10:49;-0.29;72.58
75022;SHT31;63583;49.976;20.182;2023-02-28T17:13:14;-0.34;72.59
75022;SHT31;63583;49.976;20.182;2023-02-28T17:15:40;-0.36;72.76
75022;SHT31;63583;49.976;20.182;2023-02-28T17:18:09;-0.41;73.02
75022;SHT31;63583;49.976;20.182;2023-02-28T17:20:38;-0.43;73.33
75022;SHT31;63583;49.976;20.182;2023-02-28T17:23:04;-0.44;72.92
75022;SHT31;63583;49.976;20.182;2023-02-28T17:25:30;-0.45;72.78
75022;SHT31;63583;49.976;20.182;2023-02-28T17:27:55;-0.45;72.76
75022;SHT31;63583;49.976;20.182;2023-02-28T17:30:23;-0.47;72.74
75022;SHT31;63583;49.976;20.182;2023-02-28T17:32:49;-0.49;72.53
75022;SHT31;63583;49.976;20.182;2023-02-28T17:35:15;-0.50;72.47
75022;SHT31;63583;49.976;20.182;2023-02-28T17:37:42;-0.47;72.36
75022;SHT31;63583;49.976;20.182;2023-02-28T17:40:17;-0.49;72.29
75022;SHT31;63583;49.976;20.182;2023-02-28T17:42:44;-0.49;72.27
75022;SHT31;63583;49.976;20.182;2023-02-28T17:45:13;-0.50;72.37
75022;SHT31;63583;49.976;20.182;2023-02-28T17:47:39;-0.54;72.61
75022;SHT31;63583;49.976;20.182;2023-02-28T17:50:06;-0.56;72.68
75022;SHT31;63583;49.976;20.182;2023-02-28T17:52:31;-0.57;72.77
75022;SHT31;63583;49.976;20.182;2023-02-28T17:55:03;-0.57;72.94
75022;SHT31;63583;49.976;20.182;2023-02-28T17:57:29;-0.54;72.69
75022;SHT31;63583;49.976;20.182;2023-02-28T17:59:55;-0.58;72.90
75022;SHT31;63583;49.976;20.182;2023-02-28T18:02:20;-0.57;72.61
75022;SHT31;63583;49.976;20.182;2023-02-28T18:04:47;-0.57;72.68